Time;durP1;ratioP1;P1;durP2;ratioP2;P2;SDS_P1;SDS_P2;PMS_P1;PMS_P2;Temp;Humidity;BMP_temperature;BMP_pressure;BME280_temperature;BME280_humidity;BME280_pressure;Samples;Min_cycle;Max_cycle;Signal;HPM_P1;HPM_P2
2021/05/16 00:01:32;;;;;;;14.68;10.03;;;;;;;10.93;75.14;96244.05;1727025;82;26408;-92
2021/05/16 00:03:59;;;;;;;19.73;9.53;;;;;;;10.92;75.23;96243.77;1727199;82;25728;-91
2021/05/16 00:06:27;;;;;;;18.67;10.58;;;;;;;10.94;75.33;96244.88;1727232;82;26397;-93
2021/05/16 00:08:53;;;;;;;14.93;9.75;;;;;;;10.95;75.36;96245.17;1727124;82;25662;-89
2021/05/16 00:11:20;;;;;;;18.40;10.03;;;;;;;10.96;75.37;96246.28;1725965;82;28267;-92
2021/05/16 00:13:47;;;;;;;15.28;9.63;;;;;;;10.98;75.41;96248.74;1706715;83;25828;-92
2021/05/16 00:16:13;;;;;;;15.63;9.18;;;;;;;;;;1701830;82;25638;-87
2021/05/16 00:18:39;;;;;;;11.78;8.68;;;;;;;11.02;75.45;96249.88;1711361;82;25784;-84
2021/05/16 00:21:06;;;;;;;13.45;8.38;;;;;;;11.03;75.45;96248.29;1722279;82;25617;-88
2021/05/16 00:23:32;;;;;;;11.08;7.40;;;;;;;11.05;75.47;96246.70;1726985;82;28037;-89
2021/05/16 00:25:59;;;;;;;15.75;9.78;;;;;;;10.97;75.44;96244.40;1719104;82;25581;-90
2021/05/16 00:28:26;;;;;;;13.75;8.60;;;;;;;10.91;75.53;96232.67;1722104;82;25623;-90
2021/05/16 00:30:53;;;;;;;15.30;8.45;;;;;;;10.93;75.71;96228.38;1715895;82;25883;-91
2021/05/16 00:33:20;;;;;;;12.25;8.28;;;;;;;10.95;75.79;96223.04;1719113;82;25591;-90
2021/05/16 00:35:47;;;;;;;14.05;7.78;;;;;;;10.98;75.76;96223.09;1748996;81;27091;-88
2021/05/16 00:38:13;;;;;;;11.90;7.12;;;;;;;10.99;75.74;96229.57;1722935;82;25761;-90
2021/05/16 00:40:40;;;;;;;11.48;7.90;;;;;;;11.02;75.72;96230.97;1753195;81;25879;-89
2021/05/16 00:43:06;;;;;;;12.98;8.28;;;;;;;10.93;75.69;96225.16;1733984;81;25750;-90
2021/05/16 00:45:34;;;;;;;12.95;8.40;;;;;;;10.89;75.80;96223.98;1743290;81;25606;-89
2021/05/16 00:48:06;;;;;;;12.63;8.30;;;;;;;10.91;75.89;96224.57;1723218;83;27482;-90
2021/05/16 00:50:38;;;;;;;14.18;7.75;;;;;;;10.91;75.98;96225.92;1753276;80;25613;-90
2021/05/16 00:53:05;;;;;;;12.60;7.62;;;;;;;10.88;75.97;96224.23;1753429;81;32217;-91
2021/05/16 00:55:32;;;;;;;10.30;7.42;;;;;;;10.90;76.08;96220.77;1723048;83;25689;-91
2021/05/16 00:57:58;;;;;;;13.28;7.97;;;;;;;10.91;76.09;96209.72;1710145;83;25622;-90
2021/05/16 01:00:28;;;;;;;14.55;8.03;;;;;;;10.90;76.12;96202.69;1744533;80;27476;-90
2021/05/16 01:02:55;;;;;;;10.20;6.92;;;;;;;10.91;76.10;96200.80;1753334;81;25678;-89
2021/05/16 01:05:22;;;;;;;12.05;7.60;;;;;;;10.90;76.12;96196.46;1753443;81;25732;-89
2021/05/16 01:07:51;;;;;;;10.35;7.53;;;;;;;10.91;76.10;96196.75;1753292;81;26619;-89
2021/05/16 01:10:20;;;;;;;12.93;8.90;;;;;;;10.92;76.07;96197.86;1753715;81;25626;-83
2021/05/16 01:12:51;;;;;;;12.75;7.87;;;;;;;10.93;76.01;96203.55;1753332;81;28248;-87
2021/05/16 01:15:19;;;;;;;11.25;7.75;;;;;;;10.94;76.03;96203.84;1752837;81;25625;-89
2021/05/16 01:17:47;;;;;;;12.13;6.75;;;;;;;10.94;75.98;96204.38;1753442;81;25617;-89
2021/05/16 01:20:31;;;;;;;10.85;6.87;;;;;;;10.92;75.94;96201.09;1753610;81;25676;-88
2021/05/16 01:23:01;;;;;;;10.70;6.83;;;;;;;10.88;75.89;96203.45;1722797;82;26327;-89
2021/05/16 01:25:31;;;;;;;9.70;6.35;;;;;;;10.85;75.85;96203.14;1691923;83;27336;-87
2021/05/16 01:27:58;;;;;;;9.80;6.50;;;;;;;10.80;75.76;96202.50;1743098;81;25959;-88
2021/05/16 01:30:25;;;;;;;7.45;6.00;;;;;;;10.75;75.76;96191.06;1703903;83;25674;-89
2021/05/16 01:32:53;;;;;;;7.40;5.53;;;;;;;10.72;75.72;96194.27;1717833;83;26368;-88
2021/05/16 01:35:21;;;;;;;8.08;4.67;;;;;;;10.69;75.68;96193.92;1712197;83;25527;-88
2021/05/16 01:37:49;;;;;;;7.45;5.45;;;;;;;10.62;75.52;96190.56;1753401;81;27472;-89
2021/05/16 01:40:19;;;;;;;9.15;4.92;;;;;;;10.48;75.46;96191.38;1753178;81;26208;-84
2021/05/16 01:42:48;;;;;;;9.05;5.08;;;;;;;10.37;75.57;96190.36;1753358;81;25586;-88
2021/05/16 01:45:17;;;;;;;7.20;4.90;;;;;;;10.35;75.83;96183.03;1753210;80;26413;-89
2021/05/16 01:47:43;;;;;;;7.03;5.20;;;;;;;10.37;75.89;96188.19;1753534;81;26307;-89
2021/05/16 01:50:15;;;;;;;7.55;4.75;;;;;;;10.27;75.87;96183.91;1751958;81;27306;-88
2021/05/16 01:52:44;;;;;;;7.62;5.03;;;;;;;10.19;75.98;96190.52;1748753;81;25915;-90
2021/05/16 01:55:12;;;;;;;8.98;5.70;;;;;;;10.10;76.17;96185.17;1726404;82;25640;-90
2021/05/16 01:57:39;;;;;;;8.25;4.95;;;;;;;10.11;76.31;96189.52;1756536;81;26476;-88
2021/05/16 02:00:10;;;;;;;7.60;4.75;;;;;;;10.16;76.42;96188.25;1744986;81;25595;-89
2021/05/16 02:02:39;;;;;;;9.93;4.87;;;;;;;10.17;76.37;96187.20;1721289;83;28066;-88
2021/05/16 02:05:10;;;;;;;8.78;5.08;;;;;;;10.19;76.34;96185.64;1751784;81;26297;-88
2021/05/16 02:07:37;;;;;;;7.33;4.70;;;;;;;10.20;76.28;96196.73;1716520;82;26386;-89
2021/05/16 02:10:08;;;;;;;6.83;4.62;;;;;;;10.19;76.24;96195.91;1756520;81;26299;-89
2021/05/16 02:12:34;;;;;;;8.13;4.72;;;;;;;10.12;76.17;96192.50;1754363;81;26271;-89
2021/05/16 02:15:01;;;;;;;7.60;4.12;;;;;;;10.04;76.19;96188.80;1713700;83;27492;-90
2021/05/16 02:17:28;;;;;;;6.70;4.87;;;;;;;10.02;76.27;96189.59;1748816;81;26000;-88
2021/05/16 02:19:55;;;;;;;6.97;4.90;;;;;;;10.03;76.33;96192.55;1726287;83;25731;-89
2021/05/16 02:22:22;;;;;;;8.33;5.55;;;;;;;10.03;76.29;96192.55;1755446;81;25739;-88
2021/05/16 02:24:48;;;;;;;6.00;4.80;;;;;;;10.02;76.30;96197.13;1696948;83;25626;-87
2021/05/16 02:27:17;;;;;;;6.87;4.28;;;;;;;10.04;76.37;96196.89;1743544;82;27329;-91
2021/05/16 02:29:44;;;;;;;7.20;4.58;;;;;;;10.01;76.23;96198.73;1744045;81;25672;-91
2021/05/16 02:32:12;;;;;;;7.10;3.85;;;;;;;9.99;76.25;96190.06;1741070;82;26311;-92
2021/05/16 02:34:39;;;;;;;7.62;3.75;;;;;;;9.98;76.22;96191.12;1739085;81;26290;-90
2021/05/16 02:37:05;;;;;;;5.92;3.95;;;;;;;9.96;76.16;96189.18;1735325;82;25602;-89
2021/05/16 02:39:32;;;;;;;5.85;3.75;;;;;;;9.93;76.16;96188.30;1744343;81;27372;-91
2021/05/16 02:41:58;;;;;;;9.75;4.12;;;;;;;9.91;76.23;96185.02;1744042;82;25714;-90
2021/05/16 02:44:27;;;;;;;4.85;3.35;;;;;;;9.89;76.27;96183.93;1707362;83;25615;-90
2021/05/16 02:46:53;;;;;;;6.87;3.35;;;;;;;9.90;76.30;96183.41;1736610;82;25803;-89
2021/05/16 02:49:20;;;;;;;5.50;3.62;;;;;;;9.90;76.35;96184.75;1744170;81;25649;-90
2021/05/16 02:51:47;;;;;;;7.30;4.05;;;;;;;9.89;76.40;96185.80;1750565;80;28233;-90
2021/05/16 02:54:13;;;;;;;6.22;3.72;;;;;;;9.89;76.40;96183.11;1709718;82;25717;-89
2021/05/16 02:56:40;;;;;;;9.45;4.35;;;;;;;9.85;76.39;96187.32;1753294;81;25680;-90
2021/05/16 02:59:06;;;;;;;8.08;4.50;;;;;;;9.74;76.42;96189.80;1754351;80;25726;-91
2021/05/16 03:01:33;;;;;;;6.42;4.05;;;;;;;9.72;76.53;96194.59;1761621;81;25572;-91
2021/05/16 03:04:00;;;;;;;8.48;5.30;;;;;;;9.70;76.65;96192.66;1758674;80;27530;-92
2021/05/16 03:06:27;;;;;;;6.30;3.87;;;;;;;9.71;76.75;96195.65;1760079;81;25643;-91
2021/05/16 03:08:53;;;;;;;5.25;4.08;;;;;;;9.74;76.80;96197.88;1753088;81;25648;-90
2021/05/16 03:11:20;;;;;;;6.87;4.60;;;;;;;9.78;76.75;96197.42;1752032;81;25901;-90
2021/05/16 03:13:47;;;;;;;5.03;3.40;;;;;;;9.78;76.74;96187.98;1755422;81;25834;-91
2021/05/16 03:16:13;;;;;;;6.83;4.40;;;;;;;9.79;76.71;96193.11;1731509;81;27440;-90
2021/05/16 03:18:40;;;;;;;6.60;4.62;;;;;;;9.81;76.74;96192.88;1706743;82;25658;-91
2021/05/16 03:21:06;;;;;;;7.72;5.50;;;;;;;9.80;76.77;96194.76;1742970;81;25647;-88
2021/05/16 03:23:33;;;;;;;9.43;4.80;;;;;;;9.83;76.83;96196.17;1751931;81;25896;-82
2021/05/16 03:26:03;;;;;;;7.33;4.30;;;;;;;9.85;76.82;96185.45;1751115;81;25721;-91
2021/05/16 03:28:30;;;;;;;9.00;4.92;;;;;;;9.82;76.68;96191.83;1751946;81;27331;-91
2021/05/16 03:30:58;;;;;;;12.00;4.78;;;;;;;9.81;76.79;96179.41;1750337;81;25628;-92
2021/05/16 03:33:25;;;;;;;5.72;4.50;;;;;;;9.81;76.90;96180.75;1719642;81;25833;-84
2021/05/16 03:35:53;;;;;;;7.20;5.05;;;;;;;9.79;76.90;96189.07;1744017;81;25874;-88
2021/05/16 03:38:20;;;;;;;5.87;4.83;;;;;;;9.82;76.97;96182.39;1708340;82;25641;-91
2021/05/16 03:40:47;;;;;;;6.90;4.10;;;;;;;9.85;77.02;96191.37;1737359;81;27396;-89
2021/05/16 03:43:13;;;;;;;6.47;4.10;;;;;;;9.86;77.04;96188.44;1761843;81;25776;-90
2021/05/16 03:45:40;;;;;;;5.85;4.17;;;;;;;9.85;77.09;96188.14;1761970;81;25627;-88
2021/05/16 03:48:07;;;;;;;5.17;4.10;;;;;;;9.88;77.10;96187.67;1747637;81;26500;-89
2021/05/16 03:50:33;;;;;;;6.53;4.60;;;;;;;9.89;77.11;96179.89;1728951;82;25724;-88
2021/05/16 03:53:00;;;;;;;4.25;3.70;;;;;;;9.93;77.27;96179.69;1734151;82;27533;-91
2021/05/16 03:55:27;;;;;;;6.53;3.75;;;;;;;9.99;77.36;96173.89;1732164;82;25704;-90
2021/05/16 03:57:53;;;;;;;6.70;4.25;;;;;;;10.03;77.32;96177.73;1734496;82;25636;-87
2021/05/16 04:00:21;;;;;;;8.10;3.72;;;;;;;10.09;77.34;96176.80;1721819;82;25832;-89
2021/05/16 04:02:47;;;;;;;6.12;4.28;;;;;;;10.14;77.36;96175.56;1712689;82;26449;-90
2021/05/16 04:05:14;;;;;;;6.92;4.40;;;;;;;10.17;77.36;96168.32;1725061;82;27509;-90
2021/05/16 04:07:43;;;;;;;8.50;4.03;;;;;;;10.19;77.28;96166.77;1729517;82;25558;-90
2021/05/16 04:10:11;;;;;;;7.40;3.80;;;;;;;10.20;77.28;96166.53;1720113;82;25199;-91
2021/05/16 04:12:38;;;;;;;10.58;3.80;;;;;;;10.17;77.23;96162.92;1756531;81;25662;-89
2021/05/16 04:15:07;;;;;;;5.72;3.95;;;;;;;10.19;77.27;96164.89;1726529;83;25667;-90
2021/05/16 04:17:34;;;;;;;4.92;3.70;;;;;;;10.22;77.28;96161.73;1705028;82;27482;-90
2021/05/16 04:20:00;;;;;;;7.97;3.47;;;;;;;10.26;77.25;96165.59;1749964;81;25839;-87
2021/05/16 04:22:27;;;;;;;5.78;3.80;;;;;;;10.28;77.25;96159.41;1712924;82;25658;-88
2021/05/16 04:24:54;;;;;;;5.15;3.52;;;;;;;10.31;77.22;96162.98;1738627;82;25650;-89
2021/05/16 04:27:20;;;;;;;6.20;3.55;;;;;;;10.31;77.17;96161.63;1738603;82;25585;-89
2021/05/16 04:29:47;;;;;;;7.12;3.47;;;;;;;10.32;77.07;96162.45;1738738;82;27250;-89
2021/05/16 04:32:13;;;;;;;6.87;3.27;;;;;;;10.33;77.10;96159.52;1736902;82;25642;-86
2021/05/16 04:34:40;;;;;;;6.60;3.35;;;;;;;10.36;77.10;96159.05;1722602;82;25623;-90
2021/05/16 04:37:07;;;;;;;5.37;3.58;;;;;;;10.39;77.16;96158.55;1747822;81;25726;-88
2021/05/16 04:39:33;;;;;;;4.95;3.50;;;;;;;10.43;77.12;96167.80;1719608;82;25879;-88
2021/05/16 04:42:00;;;;;;;6.78;3.65;;;;;;;10.49;77.15;96167.92;1720950;82;26779;-86
2021/05/16 04:44:26;;;;;;;5.42;3.67;;;;;;;10.52;77.12;96163.37;1722166;82;25631;-91
2021/05/16 04:46:53;;;;;;;6.53;3.60;;;;;;;10.60;77.18;96164.34;1700821;82;25598;-92
2021/05/16 04:49:20;;;;;;;9.68;4.30;;;;;;;10.67;77.10;96170.41;1706549;82;25682;-92
2021/05/16 04:51:46;;;;;;;6.62;4.30;;;;;;;10.71;77.02;96170.22;1722016;82;25669;-91
2021/05/16 04:54:13;;;;;;;7.85;4.40;;;;;;;10.77;76.98;96165.19;1725038;82;27623;-90
2021/05/16 04:56:39;;;;;;;6.65;4.35;;;;;;;10.81;76.92;96166.35;1717262;82;25742;-91
2021/05/16 04:59:06;;;;;;;10.30;4.50;;;;;;;10.85;77.01;96166.70;1711423;82;25758;-91
2021/05/16 05:01:33;;;;;;;6.90;4.17;;;;;;;10.90;77.13;96159.48;1730528;82;26647;-91
2021/05/16 05:03:59;;;;;;;5.58;4.30;;;;;;;10.96;77.11;96161.76;1730579;82;25535;-92
2021/05/16 05:06:29;;;;;;;5.25;3.67;;;;;;;11.02;77.14;96158.89;1714813;82;28231;-92
2021/05/16 05:08:58;;;;;;;5.50;4.05;;;;;;;11.08;77.15;96156.58;1726627;82;25175;-92
2021/05/16 05:11:24;;;;;;;4.15;3.50;;;;;;;11.14;77.15;96160.98;1730887;82;25232;-90
2021/05/16 05:13:51;;;;;;;5.72;3.55;;;;;;;11.21;77.23;96160.02;1730488;82;26378;-91
2021/05/16 05:16:18;;;;;;;5.30;3.37;;;;;;;11.26;77.08;96162.25;1685924;82;25504;-92
2021/05/16 05:18:44;;;;;;;6.33;4.08;;;;;;;11.34;77.03;96156.99;1713514;82;28031;-91
2021/05/16 05:21:11;;;;;;;6.78;5.08;;;;;;;11.41;76.98;96156.28;1728275;82;25649;-92
2021/05/16 05:23:38;;;;;;;13.78;6.72;;;;;;;11.48;76.89;96151.52;1729904;82;25582;-92
2021/05/16 05:26:05;;;;;;;8.18;3.72;;;;;;;11.53;76.86;96144.84;1730608;82;25743;-91
2021/05/16 05:28:32;;;;;;;7.22;4.30;;;;;;;11.60;76.88;96145.48;1730703;82;25586;-93
2021/05/16 05:30:58;;;;;;;4.58;3.58;;;;;;;11.65;76.81;96154.20;1730393;82;27398;-90
2021/05/16 05:33:25;;;;;;;4.67;3.45;;;;;;;11.73;76.60;96157.83;1722810;82;25681;-88
2021/05/16 05:35:52;;;;;;;5.20;3.67;;;;;;;11.80;76.58;96161.22;1716565;83;25244;-91
2021/05/16 05:38:20;;;;;;;7.50;4.25;;;;;;;11.86;76.34;96163.73;1718498;83;26514;-91
2021/05/16 05:40:47;;;;;;;6.80;4.30;;;;;;;11.88;76.22;96154.84;1720770;82;25714;-91
2021/05/16 05:43:14;;;;;;;5.45;3.72;;;;;;;11.97;76.09;96151.70;1730722;82;28284;-90
2021/05/16 05:45:41;;;;;;;5.40;4.28;;;;;;;12.01;75.96;96141.48;1730519;82;25797;-90
2021/05/16 05:48:07;;;;;;;6.03;3.77;;;;;;;12.05;76.14;96149.39;1726314;82;25780;-91
2021/05/16 05:50:34;;;;;;;5.72;4.30;;;;;;;12.13;76.29;96145.42;1716089;82;25751;-84
2021/05/16 05:53:04;;;;;;;6.25;5.00;;;;;;;12.21;76.16;96146.33;1727399;82;25523;-92
2021/05/16 05:55:32;;;;;;;4.70;4.00;;;;;;;12.24;75.92;96148.54;1697481;82;28112;-92
2021/05/16 05:57:59;;;;;;;4.80;3.85;;;;;;;12.30;75.93;96158.37;1715620;82;25235;-92
2021/05/16 06:00:30;;;;;;;6.62;3.67;;;;;;;12.36;75.83;96158.69;1706124;82;25308;-91
2021/05/16 06:02:58;;;;;;;4.67;3.75;;;;;;;12.40;75.47;96165.25;1723214;83;26411;-92
2021/05/16 06:05:27;;;;;;;5.47;3.90;;;;;;;12.44;75.32;96163.65;1698155;82;25882;-92
2021/05/16 06:07:55;;;;;;;5.65;4.17;;;;;;;12.49;75.21;96161.55;1714695;82;28142;-92
2021/05/16 06:10:23;;;;;;;7.03;3.85;;;;;;;12.53;75.49;96165.39;1728925;82;25649;-93
2021/05/16 06:12:50;;;;;;;4.62;3.60;;;;;;;12.59;75.55;96163.83;1727276;83;25619;-93
2021/05/16 06:15:17;;;;;;;4.47;3.95;;;;;;;12.67;75.47;96164.47;1699381;83;25733;-87
2021/05/16 06:17:44;;;;;;;8.30;4.40;;;;;;;12.75;75.52;96170.77;1696445;83;25316;-88
2021/05/16 06:20:11;;;;;;;7.75;4.05;;;;;;;12.78;75.34;96167.56;1721473;82;27333;-88
2021/05/16 06:22:38;;;;;;;5.83;3.50;;;;;;;12.81;75.20;96172.45;1727021;82;25712;-90
2021/05/16 06:25:06;;;;;;;4.03;2.98;;;;;;;12.84;74.84;96174.11;1710570;83;25674;-87
2021/05/16 06:27:33;;;;;;;3.47;3.17;;;;;;;12.90;74.70;96172.29;1712991;83;26329;-87
2021/05/16 06:30:00;;;;;;;5.87;3.55;;;;;;;12.97;74.52;96171.53;1727283;83;25675;-91
2021/05/16 06:32:26;;;;;;;4.30;3.37;;;;;;;13.04;74.48;96169.42;1700571;82;27524;-89
2021/05/16 06:34:56;;;;;;;3.98;3.33;;;;;;;13.10;74.22;96164.88;1715190;82;25750;-85
2021/05/16 06:37:24;;;;;;;4.50;3.27;;;;;;;13.14;74.23;96160.59;1722548;82;25645;-87
2021/05/16 06:39:50;;;;;;;4.92;3.55;;;;;;;13.22;74.09;96162.86;1708501;82;26556;-90
2021/05/16 06:42:17;;;;;;;4.33;3.50;;;;;;;13.26;74.10;96159.38;1717306;82;25703;-89
2021/05/16 06:44:43;;;;;;;4.53;3.33;;;;;;;13.32;74.02;96161.05;1694802;83;27583;-89
2021/05/16 06:47:10;;;;;;;3.95;3.37;;;;;;;13.40;73.97;96168.44;1715721;83;25733;-90
2021/05/16 06:49:37;;;;;;;3.75;3.20;;;;;;;13.43;73.77;96162.48;1725946;82;25712;-88
2021/05/16 06:52:04;;;;;;;5.80;2.98;;;;;;;13.48;73.71;96158.46;1707880;82;26557;-91
2021/05/16 06:54:31;;;;;;;3.47;3.17;;;;;;;13.51;73.30;96161.48;1691134;84;25708;-91
2021/05/16 06:56:58;;;;;;;5.85;3.42;;;;;;;13.57;73.16;96164.49;1688917;84;27641;-91
2021/05/16 06:59:25;;;;;;;3.77;3.30;;;;;;;13.64;73.12;96163.72;1689772;84;25718;-88
2021/05/16 07:01:51;;;;;;;3.62;3.33;;;;;;;13.69;73.12;96154.81;1688669;84;25239;-89
2021/05/16 07:04:18;;;;;;;4.17;3.37;;;;;;;13.73;73.21;96154.58;1690279;84;25910;-88
2021/05/16 07:06:44;;;;;;;4.72;3.62;;;;;;;13.77;73.08;96155.66;1690931;84;25637;-90
2021/05/16 07:09:11;;;;;;;6.00;3.70;;;;;;;13.83;73.15;96150.56;1682633;84;27962;-87
2021/05/16 07:11:38;;;;;;;7.33;3.37;;;;;;;13.92;72.94;96159.02;1690031;84;25634;-90
2021/05/16 07:14:04;;;;;;;5.22;3.55;;;;;;;14.00;72.95;96156.65;1690984;84;25601;-89
2021/05/16 07:16:31;;;;;;;5.50;3.80;;;;;;;14.03;72.66;96153.92;1691698;84;25749;-86
2021/05/16 07:18:57;;;;;;;4.25;3.45;;;;;;;14.05;72.40;96151.23;1690091;84;25648;-88
2021/05/16 07:21:24;;;;;;;5.22;3.60;;;;;;;14.12;72.46;96148.84;1691142;84;27406;-88
2021/05/16 07:23:51;;;;;;;4.60;3.80;;;;;;;14.17;72.31;96150.20;1693638;84;25568;-89
2021/05/16 07:26:18;;;;;;;5.15;4.00;;;;;;;14.22;72.14;96148.88;1690092;84;25751;-90
2021/05/16 07:28:45;;;;;;;6.15;3.67;;;;;;;14.25;72.10;96146.43;1692746;84;26438;-84
2021/05/16 07:31:12;;;;;;;5.42;4.35;;;;;;;14.33;72.05;96149.20;1686734;84;25634;-91
2021/05/16 07:33:40;;;;;;;4.67;4.00;;;;;;;14.40;72.04;96151.14;1682386;84;27504;-90
2021/05/16 07:36:07;;;;;;;8.50;3.77;;;;;;;14.46;72.03;96146.02;1690074;84;25652;-91
2021/05/16 07:38:33;;;;;;;4.55;3.77;;;;;;;14.51;71.75;96150.09;1688764;84;25688;-88
2021/05/16 07:41:00;;;;;;;6.05;4.33;;;;;;;14.55;71.64;96153.92;1685958;84;25876;-89
2021/05/16 07:43:27;;;;;;;6.25;4.17;;;;;;;14.56;71.36;96155.55;1679622;84;25764;-89
2021/05/16 07:45:54;;;;;;;4.95;3.60;;;;;;;14.59;71.31;96149.59;1690971;84;26721;-89
2021/05/16 07:48:28;;;;;;;5.78;3.85;;;;;;;14.63;71.17;96156.11;1688688;84;25764;-85
2021/05/16 07:50:50;;;;;;;4.85;3.72;;;;;;;14.65;71.06;96156.66;1673153;83;25646;-86
2021/05/16 07:53:16;;;;;;;6.37;3.90;;;;;;;14.69;71.07;96152.34;1698757;83;26374;-89
2021/05/16 07:55:43;;;;;;;5.15;4.20;;;;;;;14.76;70.98;96156.96;1706889;83;26284;-87
2021/05/16 07:58:09;;;;;;;6.30;4.10;;;;;;;14.83;70.92;96158.63;1712611;83;27437;-91
2021/05/16 08:00:36;;;;;;;6.35;4.37;;;;;;;14.87;70.92;96152.91;1687562;83;25685;-90
2021/05/16 08:03:03;;;;;;;4.62;3.27;;;;;;;14.95;70.87;96157.83;1711955;83;25674;-86
2021/05/16 08:05:30;;;;;;;2.65;2.37;;;;;;;15.06;70.56;96167.63;1713277;83;25745;-88
2021/05/16 08:07:57;;;;;;;4.20;3.10;;;;;;;15.12;69.94;96159.20;1712799;83;25690;-84
2021/05/16 08:10:24;;;;;;;6.85;4.00;;;;;;;15.17;69.63;96157.05;1712088;83;27872;-84
2021/05/16 08:12:50;;;;;;;4.75;3.35;;;;;;;15.23;69.68;96155.12;1706634;83;25712;-87
2021/05/16 08:15:18;;;;;;;3.65;3.30;;;;;;;15.24;69.50;96152.14;1711137;83;25684;-85
2021/05/16 08:17:46;;;;;;;6.15;4.25;;;;;;;15.24;69.28;96156.77;1708279;83;25666;-83
2021/05/16 08:20:14;;;;;;;3.92;3.52;;;;;;;15.30;69.27;96158.41;1682338;83;25714;-87
2021/05/16 08:22:40;;;;;;;2.70;2.42;;;;;;;15.34;69.18;96158.94;1709001;83;27345;-87
2021/05/16 08:25:11;;;;;;;3.50;2.25;;;;;;;15.29;68.64;96168.47;1711870;83;25607;-87
2021/05/16 08:27:39;;;;;;;3.15;2.25;;;;;;;15.26;68.50;96172.27;1712316;83;25679;-87
2021/05/16 08:30:07;;;;;;;5.40;2.22;;;;;;;15.24;68.37;96170.35;1711398;83;25739;-87
2021/05/16 08:32:34;;;;;;;3.15;2.60;;;;;;;15.26;68.32;96175.80;1710112;83;26290;-87
2021/05/16 08:35:00;;;;;;;9.63;5.08;;;;;;;15.22;67.92;96172.52;1700380;83;27441;-82
2021/05/16 08:37:27;;;;;;;6.08;3.58;;;;;;;15.18;67.67;96183.68;1734749;81;25626;-86
2021/05/16 08:39:54;;;;;;;2.98;1.92;;;;;;;15.15;67.49;96179.59;1742723;81;25590;-88
2021/05/16 08:42:20;;;;;;;1.82;1.20;;;;;;;15.11;67.12;96182.02;1725983;81;25730;-86
2021/05/16 08:44:47;;;;;;;2.05;1.07;;;;;;;15.06;66.50;96184.75;1695004;84;25687;-86
2021/05/16 08:47:15;;;;;;;4.95;2.17;;;;;;;15.03;65.92;96188.55;1700521;83;27247;-86
2021/05/16 08:49:42;;;;;;;2.80;1.20;;;;;;;15.00;65.70;96193.97;1694478;83;25709;-88
2021/05/16 08:52:08;;;;;;;1.52;1.00;;;;;;;14.97;65.33;96186.91;1707645;82;25641;-85
2021/05/16 08:54:35;;;;;;;4.95;2.05;;;;;;;14.98;65.16;96184.45;1744960;82;26373;-87
2021/05/16 08:57:01;;;;;;;1.47;0.88;;;;;;;14.98;64.91;96198.03;1730806;82;25588;-82
2021/05/16 08:59:28;;;;;;;3.15;1.02;;;;;;;14.99;64.98;96198.30;1745985;81;27509;-87
2021/05/16 09:02:00;;;;;;;3.00;1.52;;;;;;;14.94;64.59;96195.59;1752986;81;26700;-87
2021/05/16 09:04:34;;;;;;;2.12;0.82;;;;;;;14.92;64.44;96192.33;1753614;81;26294;-86
2021/05/16 09:07:02;;;;;;;2.17;1.50;;;;;;;14.86;63.95;96189.30;1746262;81;26428;-89
2021/05/16 09:09:36;;;;;;;0.98;0.88;;;;;;;14.88;63.93;96189.86;1747538;81;25662;-86
2021/05/16 09:12:12;;;;;;;1.35;0.80;;;;;;;14.97;64.01;96193.70;1704157;82;27421;-85
2021/05/16 09:14:50;;;;;;;3.42;1.35;;;;;;;14.94;63.52;96194.23;1719293;82;26015;-87
2021/05/16 09:17:33;;;;;;;1.30;0.82;;;;;;;14.95;63.45;96195.33;1752367;81;25693;-88
2021/05/16 09:20:05;;;;;;;;;;;;;;;15.00;63.27;96193.15;1725676;82;26342;-89
2021/05/16 09:22:44;;;;;;;1.62;0.68;;;;;;;15.03;62.90;96198.05;1753405;81;25250;-88
2021/05/16 09:25:26;;;;;;;1.25;0.70;;;;;;;15.09;63.09;96190.20;1729686;81;27326;-87
2021/05/16 09:27:57;;;;;;;0.80;0.70;;;;;;;15.20;62.93;96191.03;1719114;83;26063;-87
2021/05/16 09:30:27;;;;;;;2.62;1.02;;;;;;;15.21;62.49;96190.77;1749565;81;25611;-88
2021/05/16 09:33:07;;;;;;;1.15;0.80;;;;;;;15.20;62.40;96191.84;1740119;81;25695;-86
2021/05/16 09:35:44;;;;;;;1.75;0.70;;;;;;;15.19;62.26;96191.57;1717713;83;25699;-87
2021/05/16 09:38:20;;;;;;;0.70;0.70;;;;;;;15.20;62.27;96191.84;1716918;83;27339;-88
2021/05/16 09:40:51;;;;;;;1.62;0.70;;;;;;;15.15;61.94;96195.91;1717487;83;25626;-86
2021/05/16 09:43:30;;;;;;;1.20;1.00;;;;;;;15.16;61.99;96194.82;1717460;82;25695;-90
2021/05/16 09:46:01;;;;;;;0.65;0.65;;;;;;;15.14;61.80;96196.45;1717362;83;25712;-87
2021/05/16 09:48:43;;;;;;;0.65;0.53;;;;;;;15.14;61.68;96205.95;1717447;83;25690;-88
2021/05/16 09:51:20;;;;;;;1.92;1.30;;;;;;;15.12;61.47;96195.89;1716569;83;27596;-83
2021/05/16 09:54:06;;;;;;;1.07;0.80;;;;;;;15.12;61.20;96199.97;1724505;81;25893;-86
2021/05/16 09:56:39;;;;;;;2.12;0.80;;;;;;;14.98;60.55;96197.48;1746768;81;25611;-84
2021/05/16 09:59:12;;;;;;;2.50;0.80;;;;;;;14.97;60.79;96197.78;1728444;81;25690;-86
2021/05/16 10:01:39;;;;;;;0.90;0.80;;;;;;;14.96;60.51;96202.94;1707825;83;25535;-83
2021/05/16 10:04:07;;;;;;;1.55;0.62;;;;;;;14.96;60.44;96201.05;1749113;81;27339;-84
2021/05/16 10:06:35;;;;;;;0.78;0.78;;;;;;;14.97;60.53;96204.58;1745059;81;25703;-85
2021/05/16 10:09:03;;;;;;;1.12;0.70;;;;;;;14.99;60.92;96204.56;1758952;81;26238;-87
2021/05/16 10:11:31;;;;;;;0.65;0.65;;;;;;;14.93;60.93;96208.91;1728651;81;26494;-88
2021/05/16 10:14:03;;;;;;;1.40;0.50;;;;;;;14.91;60.79;96208.34;1758847;81;26442;-87
2021/05/16 10:16:48;;;;;;;1.60;0.95;;;;;;;14.92;60.96;96213.52;1728789;82;28136;-86
2021/05/16 10:19:20;;;;;;;1.05;0.60;;;;;;;14.93;60.95;96214.34;1758773;81;25730;-87
2021/05/16 10:22:03;;;;;;;1.40;0.57;;;;;;;14.85;61.27;96212.97;1727753;82;35266;-86
2021/05/16 10:24:47;;;;;;;1.57;1.20;;;;;;;14.70;61.40;96208.30;1757779;81;25690;-87
2021/05/16 10:27:24;;;;;;;1.20;1.00;;;;;;;14.58;61.89;96210.96;1758501;81;25665;-91
2021/05/16 10:30:09;;;;;;;1.05;0.85;;;;;;;14.47;62.24;96210.64;1715753;82;27196;-90
2021/05/16 10:32:49;;;;;;;2.33;1.02;;;;;;;14.46;62.62;96214.44;1747871;81;25734;-90
2021/05/16 10:35:16;;;;;;;1.87;1.10;;;;;;;14.44;62.68;96217.95;1747101;81;25835;-87
2021/05/16 10:37:55;;;;;;;2.35;1.12;;;;;;;14.37;62.74;96220.31;1755180;81;25684;-93
2021/05/16 10:40:32;;;;;;;2.87;1.20;;;;;;;14.37;63.00;96220.86;1759856;81;25185;-92
2021/05/16 10:43:04;;;;;;;1.90;1.12;;;;;;;14.28;63.31;96217.83;1729390;82;27267;-94
2021/05/16 10:45:39;;;;;;;1.52;1.22;;;;;;;14.20;63.66;96218.88;1759692;81;25610;-93
2021/05/16 10:48:12;;;;;;;1.52;1.30;;;;;;;14.17;63.93;96218.05;1729223;82;25217;-90
2021/05/16 10:50:50;;;;;;;1.80;1.70;;;;;;;14.18;64.18;96217.78;1725086;83;26912;-92
2021/05/16 10:53:34;;;;;;;4.95;2.22;;;;;;;14.16;64.44;96217.77;1732455;81;25588;-90
2021/05/16 10:56:07;;;;;;;3.20;1.90;;;;;;;14.14;64.87;96213.13;1719992;81;27398;-94
2021/05/16 10:58:44;;;;;;;2.27;1.52;;;;;;;14.17;65.20;96212.08;1710195;83;25622;-94
2021/05/16 11:01:30;;;;;;;2.22;1.75;;;;;;;14.17;65.38;96212.61;1680094;83;25590;-91
2021/05/16 11:04:00;;;;;;;2.80;1.85;;;;;;;14.21;65.79;96211.84;1690141;83;25717;-91
2021/05/16 11:06:46;;;;;;;4.15;2.08;;;;;;;14.32;66.25;96208.63;1676881;82;25710;-91
2021/05/16 11:09:14;;;;;;;4.75;1.90;;;;;;;14.41;66.31;96197.03;1677071;82;27343;-93
2021/05/16 11:11:52;;;;;;;2.67;1.60;;;;;;;14.49;66.41;96192.98;1676771;82;25896;-92
2021/05/16 11:14:26;;;;;;;2.90;1.45;;;;;;;14.56;66.68;96199.00;1676950;82;25599;-88
2021/05/16 11:17:01;;;;;;;2.33;1.70;;;;;;;14.63;66.64;96198.20;1685661;82;25772;-89
2021/05/16 11:19:31;;;;;;;2.58;1.55;;;;;;;14.67;66.79;96191.16;1677394;83;25449;-93
2021/05/16 11:22:13;;;;;;;2.75;1.20;;;;;;;14.73;66.49;96191.44;1676056;82;27511;-90
2021/05/16 11:24:49;;;;;;;1.42;1.27;;;;;;;14.69;66.19;96190.36;1686855;82;25632;-91
2021/05/16 11:27:25;;;;;;;3.20;1.10;;;;;;;14.70;66.36;96183.03;1678573;82;25670;-87
2021/05/16 11:29:59;;;;;;;1.62;1.22;;;;;;;14.71;66.26;96174.63;1675855;82;25567;-90
2021/05/16 11:32:29;;;;;;;2.33;1.50;;;;;;;14.74;66.38;96178.14;1679498;82;25607;-89
2021/05/16 11:35:16;;;;;;;2.10;1.47;;;;;;;14.76;66.48;96173.26;1702340;82;27222;-91
2021/05/16 11:37:48;;;;;;;2.67;1.77;;;;;;;14.83;66.70;96176.28;1695570;82;25754;-88
2021/05/16 11:40:18;;;;;;;1.90;1.60;;;;;;;14.92;66.48;96172.77;1677275;82;25645;-86
2021/05/16 11:42:45;;;;;;;1.77;1.12;;;;;;;15.05;66.64;96168.71;1676927;82;26377;-88